sensor_id;sensor_type;location;lat;lon;timestamp;pressure;altitude;pressure_sealevel;temperature;humidity
18137;BME280;9194;42.632;23.298;2022-09-09T00:02:29;92846.97;;;15.75;100.00
18137;BME280;9194;42.632;23.298;2022-09-09T00:23:14;92846.81;;;15.59;100.00
18137;BME280;9194;42.632;23.298;2022-09-09T00:28:23;92828.69;;;15.58;100.00
18137;BME280;9194;42.632;23.298;2022-09-09T00:33:26;92823.41;;;15.53;100.00
18137;BME280;9194;42.632;23.298;2022-09-09T00:38:35;92822.16;;;15.60;100.00
18137;BME280;9194;42.632;23.298;2022-09-09T00:43:40;92808.50;;;15.58;100.00
18137;BME280;9194;42.632;23.298;2022-09-09T01:04:17;92815.16;;;15.49;100.00
18137;BME280;9194;42.632;23.298;2022-09-09T01:30:44;92805.38;;;15.40;100.00
18137;BME280;9194;42.632;23.298;2022-09-09T01:35:57;92805.88;;;15.37;100.00
18137;BME280;9194;42.632;23.298;2022-09-09T01:41:05;92817.16;;;15.37;100.00
18137;BME280;9194;42.632;23.298;2022-09-09T01:46:25;92827.72;;;15.42;100.00
18137;BME280;9194;42.632;23.298;2022-09-09T01:51:26;92829.72;;;15.35;100.00
18137;BME280;9194;42.632;23.298;2022-09-09T02:06:45;92815.81;;;15.35;100.00
18137;BME280;9194;42.632;23.298;2022-09-09T02:12:06;92825.75;;;15.33;100.00
18137;BME280;9194;42.632;23.298;2022-09-09T02:17:28;92814.72;;;15.31;100.00
18137;BME280;9194;42.632;23.298;2022-09-09T02:22:45;92805.25;;;15.30;100.00
18137;BME280;9194;42.632;23.298;2022-09-09T02:27:51;92792.16;;;15.30;100.00
18137;BME280;9194;42.632;23.298;2022-09-09T02:32:55;92807.28;;;15.23;100.00
18137;BME280;9194;42.632;23.298;2022-09-09T02:38:07;92805.16;;;15.19;100.00
18137;BME280;9194;42.632;23.298;2022-09-09T02:43:10;92818.25;;;15.19;100.00
18137;BME280;9194;42.632;23.298;2022-09-09T02:48:30;92833.72;;;15.21;100.00
18137;BME280;9194;42.632;23.298;2022-09-09T02:53:50;92824.72;;;15.12;100.00
18137;BME280;9194;42.632;23.298;2022-09-09T02:58:58;92827.81;;;15.09;100.00
18137;BME280;9194;42.632;23.298;2022-09-09T03:04:01;92825.75;;;15.11;100.00
18137;BME280;9194;42.632;23.298;2022-09-09T03:09:02;92817.59;;;15.07;100.00
18137;BME280;9194;42.632;23.298;2022-09-09T03:14:04;92829.16;;;15.11;100.00
18137;BME280;9194;42.632;23.298;2022-09-09T03:19:07;92825.91;;;15.04;100.00
18137;BME280;9194;42.632;23.298;2022-09-09T03:24:08;92824.59;;;15.02;100.00
18137;BME280;9194;42.632;23.298;2022-09-09T03:29:11;92825.91;;;15.04;100.00
18137;BME280;9194;42.632;23.298;2022-09-09T03:34:16;92827.22;;;15.02;100.00
18137;BME280;9194;42.632;23.298;2022-09-09T03:39:17;92818.56;;;15.01;100.00
18137;BME280;9194;42.632;23.298;2022-09-09T03:44:19;92825.69;;;15.06;100.00
18137;BME280;9194;42.632;23.298;2022-09-09T03:49:21;92825.13;;;15.04;100.00
18137;BME280;9194;42.632;23.298;2022-09-09T03:54:24;92820.63;;;14.99;100.00
18137;BME280;9194;42.632;23.298;2022-09-09T03:59:29;92825.06;;;14.99;100.00
18137;BME280;9194;42.632;23.298;2022-09-09T04:04:31;92831.03;;;14.94;100.00
18137;BME280;9194;42.632;23.298;2022-09-09T04:09:35;92831.91;;;15.00;100.00
18137;BME280;9194;42.632;23.298;2022-09-09T04:14:37;92826.94;;;15.03;100.00
18137;BME280;9194;42.632;23.298;2022-09-09T04:19:40;92819.66;;;15.05;100.00
18137;BME280;9194;42.632;23.298;2022-09-09T04:24:43;92829.09;;;15.06;100.00
18137;BME280;9194;42.632;23.298;2022-09-09T04:29:48;92830.75;;;15.12;100.00
18137;BME280;9194;42.632;23.298;2022-09-09T04:34:49;92824.03;;;15.21;100.00
18137;BME280;9194;42.632;23.298;2022-09-09T04:39:51;92836.41;;;15.26;100.00
18137;BME280;9194;42.632;23.298;2022-09-09T04:44:52;92854.59;;;15.33;100.00
18137;BME280;9194;42.632;23.298;2022-09-09T04:49:56;92835.53;;;15.37;100.00
18137;BME280;9194;42.632;23.298;2022-09-09T04:54:59;92816.75;;;15.50;100.00
18137;BME280;9194;42.632;23.298;2022-09-09T05:00:03;92805.63;;;15.60;100.00
18137;BME280;9194;42.632;23.298;2022-09-09T05:05:09;92811.03;;;15.75;100.00
18137;BME280;9194;42.632;23.298;2022-09-09T05:10:12;92797.78;;;15.92;100.00
18137;BME280;9194;42.632;23.298;2022-09-09T05:15:18;92802.56;;;16.27;100.00
18137;BME280;9194;42.632;23.298;2022-09-09T05:20:19;92815.75;;;16.37;100.00
18137;BME280;9194;42.632;23.298;2022-09-09T05:25:21;92788.84;;;16.57;100.00
18137;BME280;9194;42.632;23.298;2022-09-09T05:30:23;92794.03;;;16.83;100.00
18137;BME280;9194;42.632;23.298;2022-09-09T05:35:28;92796.56;;;17.10;100.00
18137;BME280;9194;42.632;23.298;2022-09-09T05:40:30;92801.63;;;17.32;100.00
18137;BME280;9194;42.632;23.298;2022-09-09T05:45:32;92801.97;;;17.51;100.00
18137;BME280;9194;42.632;23.298;2022-09-09T05:50:35;92818.03;;;17.59;100.00
18137;BME280;9194;42.632;23.298;2022-09-09T05:55:36;92807.50;;;17.59;100.00
18137;BME280;9194;42.632;23.298;2022-09-09T06:00:39;92804.88;;;17.59;100.00
18137;BME280;9194;42.632;23.298;2022-09-09T06:05:40;92812.31;;;17.62;100.00
18137;BME280;9194;42.632;23.298;2022-09-09T06:10:41;92825.72;;;17.61;100.00
18137;BME280;9194;42.632;23.298;2022-09-09T06:15:50;92829.72;;;17.84;100.00
18137;BME280;9194;42.632;23.298;2022-09-09T06:21:01;92825.81;;;17.91;100.00
18137;BME280;9194;42.632;23.298;2022-09-09T06:31:12;92827.69;;;18.16;100.00
18137;BME280;9194;42.632;23.298;2022-09-09T06:36:21;92821.38;;;18.27;100.00
18137;BME280;9194;42.632;23.298;2022-09-09T06:41:24;92809.25;;;18.52;100.00
18137;BME280;9194;42.632;23.298;2022-09-09T06:46:29;92812.97;;;18.66;100.00
18137;BME280;9194;42.632;23.298;2022-09-09T06:51:37;92821.91;;;18.90;100.00
18137;BME280;9194;42.632;23.298;2022-09-09T06:56:46;92827.13;;;19.10;100.00
18137;BME280;9194;42.632;23.298;2022-09-09T07:01:54;92834.16;;;19.40;100.00
18137;BME280;9194;42.632;23.298;2022-09-09T07:06:57;92828.06;;;19.55;100.00
18137;BME280;9194;42.632;23.298;2022-09-09T07:12:00;92829.31;;;19.73;100.00
18137;BME280;9194;42.632;23.298;2022-09-09T07:17:06;92825.31;;;19.80;97.64
18137;BME280;9194;42.632;23.298;2022-09-09T07:22:12;92830.50;;;20.00;97.97
18137;BME280;9194;42.632;23.298;2022-09-09T07:27:14;92822.66;;;20.29;98.75
18137;BME280;9194;42.632;23.298;2022-09-09T07:32:16;92810.56;;;20.57;96.88
18137;BME280;9194;42.632;23.298;2022-09-09T07:37:18;92813.44;;;20.61;92.78
18137;BME280;9194;42.632;23.298;2022-09-09T07:42:22;92809.06;;;21.04;89.82
18137;BME280;9194;42.632;23.298;2022-09-09T07:47:24;92821.72;;;21.12;87.31
18137;BME280;9194;42.632;23.298;2022-09-09T07:52:25;92828.31;;;21.62;85.27
18137;BME280;9194;42.632;23.298;2022-09-09T07:57:31;92822.84;;;22.01;81.43
18137;BME280;9194;42.632;23.298;2022-09-09T08:02:33;92819.09;;;22.39;76.54
18137;BME280;9194;42.632;23.298;2022-09-09T08:07:34;92820.81;;;22.49;79.08
18137;BME280;9194;42.632;23.298;2022-09-09T08:12:36;92822.75;;;22.43;77.92
18137;BME280;9194;42.632;23.298;2022-09-09T08:17:42;92813.00;;;22.58;78.48
18137;BME280;9194;42.632;23.298;2022-09-09T08:22:45;92824.03;;;22.65;73.14
18137;BME280;9194;42.632;23.298;2022-09-09T08:27:47;92818.75;;;23.24;70.64
18137;BME280;9194;42.632;23.298;2022-09-09T08:32:49;92809.25;;;23.78;68.11
18137;BME280;9194;42.632;23.298;2022-09-09T08:37:55;92807.84;;;24.44;65.79
18137;BME280;9194;42.632;23.298;2022-09-09T08:48:42;92806.00;;;24.44;65.52
18137;BME280;9194;42.632;23.298;2022-09-09T08:53:48;92809.91;;;24.47;64.06
18137;BME280;9194;42.632;23.298;2022-09-09T08:58:52;92803.56;;;24.57;62.65
18137;BME280;9194;42.632;23.298;2022-09-09T09:14:29;92800.47;;;25.08;63.21
18137;BME280;9194;42.632;23.298;2022-09-09T09:19:39;92797.69;;;25.52;62.75
18137;BME280;9194;42.632;23.298;2022-09-09T09:24:55;92807.75;;;25.55;58.96
18137;BME280;9194;42.632;23.298;2022-09-09T09:30:02;92810.16;;;24.81;59.62
18137;BME280;9194;42.632;23.298;2022-09-09T09:35:12;92803.72;;;25.27;60.36
18137;BME280;9194;42.632;23.298;2022-09-09T09:40:21;92796.19;;;25.68;60.02
18137;BME280;9194;42.632;23.298;2022-09-09T09:45:35;92788.13;;;26.08;58.84
18137;BME280;9194;42.632;23.298;2022-09-09T09:51:10;92779.97;;;26.22;58.12
18137;BME280;9194;42.632;23.298;2022-09-09T09:56:16;92783.75;;;26.21;57.47
18137;BME280;9194;42.632;23.298;2022-09-09T10:01:32;92776.06;;;26.19;56.75
18137;BME280;9194;42.632;23.298;2022-09-09T10:06:41;92776.03;;;26.02;57.09
18137;BME280;9194;42.632;23.298;2022-09-09T10:17:22;92797.59;;;24.73;59.92
18137;BME280;9194;42.632;23.298;2022-09-09T10:22:26;92787.22;;;24.49;62.71
18137;BME280;9194;42.632;23.298;2022-09-09T10:32:49;92798.66;;;24.50;64.63
18137;BME280;9194;42.632;23.298;2022-09-09T10:38:16;92799.38;;;24.42;63.28
18137;BME280;9194;42.632;23.298;2022-09-09T10:49:07;92802.53;;;24.66;60.93
18137;BME280;9194;42.632;23.298;2022-09-09T10:59:44;92797.59;;;24.51;59.16
18137;BME280;9194;42.632;23.298;2022-09-09T11:04:53;92804.28;;;24.26;60.74
18137;BME280;9194;42.632;23.298;2022-09-09T11:10:02;92805.19;;;24.44;62.81
18137;BME280;9194;42.632;23.298;2022-09-09T11:15:17;92808.28;;;24.82;61.08
18137;BME280;9194;42.632;23.298;2022-09-09T11:20:22;92790.91;;;25.38;61.57
18137;BME280;9194;42.632;23.298;2022-09-09T11:25:36;92784.78;;;25.76;60.22
18137;BME280;9194;42.632;23.298;2022-09-09T11:41:14;92757.66;;;25.83;60.85
18137;BME280;9194;42.632;23.298;2022-09-09T11:46:31;92743.22;;;26.10;59.24
18137;BME280;9194;42.632;23.298;2022-09-09T11:51:34;92699.94;;;26.13;61.14
18137;BME280;9194;42.632;23.298;2022-09-09T11:56:44;92703.22;;;25.93;60.48
18137;BME280;9194;42.632;23.298;2022-09-09T12:01:50;92715.25;;;25.64;61.18
18137;BME280;9194;42.632;23.298;2022-09-09T12:07:02;92723.19;;;25.39;61.20
18137;BME280;9194;42.632;23.298;2022-09-09T12:22:25;92697.41;;;25.99;61.42
18137;BME280;9194;42.632;23.298;2022-09-09T12:27:46;92694.75;;;26.08;62.73
18137;BME280;9194;42.632;23.298;2022-09-09T12:33:01;92682.28;;;25.43;61.88
18137;BME280;9194;42.632;23.298;2022-09-09T12:38:03;92678.16;;;25.28;65.98
18137;BME280;9194;42.632;23.298;2022-09-09T12:43:18;92683.84;;;25.53;64.05
18137;BME280;9194;42.632;23.298;2022-09-09T12:48:21;92685.63;;;25.74;69.89
18137;BME280;9194;42.632;23.298;2022-09-09T12:53:26;92673.41;;;25.82;64.90
18137;BME280;9194;42.632;23.298;2022-09-09T12:58:28;92666.03;;;26.05;62.54
18137;BME280;9194;42.632;23.298;2022-09-09T13:03:42;92667.59;;;25.80;63.52
18137;BME280;9194;42.632;23.298;2022-09-09T13:08:44;92657.88;;;25.67;64.44
18137;BME280;9194;42.632;23.298;2022-09-09T13:13:51;92656.78;;;25.68;63.17
18137;BME280;9194;42.632;23.298;2022-09-09T13:18:53;92645.63;;;25.66;62.66
18137;BME280;9194;42.632;23.298;2022-09-09T13:23:56;92644.47;;;25.41;65.81
18137;BME280;9194;42.632;23.298;2022-09-09T13:29:17;92635.69;;;25.41;65.67
18137;BME280;9194;42.632;23.298;2022-09-09T13:34:31;92634.72;;;25.19;68.10
18137;BME280;9194;42.632;23.298;2022-09-09T13:39:35;92638.88;;;24.94;72.84
18137;BME280;9194;42.632;23.298;2022-09-09T13:44:39;92619.00;;;24.92;74.06
18137;BME280;9194;42.632;23.298;2022-09-09T13:49:42;92619.06;;;25.26;75.11
18137;BME280;9194;42.632;23.298;2022-09-09T13:54:51;92620.06;;;25.65;73.18
18137;BME280;9194;42.632;23.298;2022-09-09T13:59:53;92617.41;;;25.73;71.19
18137;BME280;9194;42.632;23.298;2022-09-09T14:04:58;92621.78;;;25.61;67.92
18137;BME280;9194;42.632;23.298;2022-09-09T14:09:59;92618.91;;;25.31;71.56
18137;BME280;9194;42.632;23.298;2022-09-09T14:15:01;92617.00;;;25.15;70.27
18137;BME280;9194;42.632;23.298;2022-09-09T14:20:03;92614.38;;;24.84;67.42
18137;BME280;9194;42.632;23.298;2022-09-09T14:25:12;92612.03;;;24.43;76.22
18137;BME280;9194;42.632;23.298;2022-09-09T14:30:14;92606.34;;;24.36;75.81
18137;BME280;9194;42.632;23.298;2022-09-09T14:35:15;92604.59;;;24.31;73.35
18137;BME280;9194;42.632;23.298;2022-09-09T14:40:19;92595.47;;;24.01;73.31
18137;BME280;9194;42.632;23.298;2022-09-09T14:45:20;92608.78;;;23.79;79.38
18137;BME280;9194;42.632;23.298;2022-09-09T14:50:25;92600.16;;;23.38;81.27
18137;BME280;9194;42.632;23.298;2022-09-09T14:55:27;92611.25;;;23.04;89.42
18137;BME280;9194;42.632;23.298;2022-09-09T15:00:30;92614.38;;;22.65;89.11
18137;BME280;9194;42.632;23.298;2022-09-09T15:05:31;92628.22;;;22.34;92.31
18137;BME280;9194;42.632;23.298;2022-09-09T15:10:36;92635.63;;;22.05;100.00
18137;BME280;9194;42.632;23.298;2022-09-09T15:15:39;92638.53;;;21.85;100.00
18137;BME280;9194;42.632;23.298;2022-09-09T15:20:44;92634.00;;;21.71;100.00
18137;BME280;9194;42.632;23.298;2022-09-09T15:25:54;92635.06;;;21.70;100.00
18137;BME280;9194;42.632;23.298;2022-09-09T15:30:56;92626.97;;;21.62;100.00
18137;BME280;9194;42.632;23.298;2022-09-09T15:35:58;92617.13;;;21.49;100.00
18137;BME280;9194;42.632;23.298;2022-09-09T15:41:37;92618.19;;;21.29;100.00
18137;BME280;9194;42.632;23.298;2022-09-09T15:46:52;92617.66;;;21.08;100.00
18137;BME280;9194;42.632;23.298;2022-09-09T15:52:01;92618.81;;;21.02;100.00
18137;BME280;9194;42.632;23.298;2022-09-09T15:57:06;92619.31;;;20.80;100.00
18137;BME280;9194;42.632;23.298;2022-09-09T16:02:09;92617.41;;;20.62;100.00
18137;BME280;9194;42.632;23.298;2022-09-09T16:07:10;92614.09;;;20.52;100.00
18137;BME280;9194;42.632;23.298;2022-09-09T16:12:11;92615.00;;;20.42;100.00
18137;BME280;9194;42.632;23.298;2022-09-09T16:17:14;92619.13;;;20.24;100.00
18137;BME280;9194;42.632;23.298;2022-09-09T16:22:16;92618.78;;;20.07;100.00
18137;BME280;9194;42.632;23.298;2022-09-09T16:27:19;92615.44;;;19.96;100.00
18137;BME280;9194;42.632;23.298;2022-09-09T16:32:20;92612.00;;;19.96;100.00
18137;BME280;9194;42.632;23.298;2022-09-09T16:37:21;92613.91;;;19.90;100.00
18137;BME280;9194;42.632;23.298;2022-09-09T16:42:23;92616.13;;;19.78;100.00
18137;BME280;9194;42.632;23.298;2022-09-09T16:47:24;92618.28;;;19.71;100.00
18137;BME280;9194;42.632;23.298;2022-09-09T16:52:26;92618.56;;;19.69;100.00
18137;BME280;9194;42.632;23.298;2022-09-09T16:57:27;92611.91;;;19.77;100.00
18137;BME280;9194;42.632;23.298;2022-09-09T17:02:31;92619.25;;;19.80;100.00
18137;BME280;9194;42.632;23.298;2022-09-09T17:07:32;92621.16;;;19.75;100.00
18137;BME280;9194;42.632;23.298;2022-09-09T17:12:34;92618.34;;;19.66;100.00
18137;BME280;9194;42.632;23.298;2022-09-09T17:17:36;92619.44;;;19.60;100.00
18137;BME280;9194;42.632;23.298;2022-09-09T17:22:37;92613.63;;;19.58;100.00
18137;BME280;9194;42.632;23.298;2022-09-09T17:27:39;92613.13;;;19.56;100.00
18137;BME280;9194;42.632;23.298;2022-09-09T17:32:40;92624.00;;;19.49;100.00
18137;BME280;9194;42.632;23.298;2022-09-09T17:37:42;92627.19;;;19.41;100.00
18137;BME280;9194;42.632;23.298;2022-09-09T17:42:43;92630.34;;;19.48;100.00
18137;BME280;9194;42.632;23.298;2022-09-09T17:47:45;92636.97;;;19.41;100.00
18137;BME280;9194;42.632;23.298;2022-09-09T17:52:46;92643.28;;;19.40;100.00
18137;BME280;9194;42.632;23.298;2022-09-09T17:57:47;92655.97;;;19.43;100.00
18137;BME280;9194;42.632;23.298;2022-09-09T18:02:50;92667.28;;;19.53;100.00
18137;BME280;9194;42.632;23.298;2022-09-09T18:07:51;92660.66;;;19.56;100.00
18137;BME280;9194;42.632;23.298;2022-09-09T18:12:53;92675.94;;;19.59;100.00
18137;BME280;9194;42.632;23.298;2022-09-09T18:17:55;92679.13;;;19.61;100.00
18137;BME280;9194;42.632;23.298;2022-09-09T18:22:56;92682.53;;;19.61;100.00
18137;BME280;9194;42.632;23.298;2022-09-09T18:27:57;92685.41;;;19.65;100.00
18137;BME280;9194;42.632;23.298;2022-09-09T18:32:59;92688.03;;;19.70;100.00
18137;BME280;9194;42.632;23.298;2022-09-09T18:38:00;92698.59;;;19.70;100.00
18137;BME280;9194;42.632;23.298;2022-09-09T18:43:01;92710.75;;;19.66;100.00
18137;BME280;9194;42.632;23.298;2022-09-09T18:48:03;92710.25;;;19.64;100.00
18137;BME280;9194;42.632;23.298;2022-09-09T18:53:05;92716.56;;;19.63;100.00
18137;BME280;9194;42.632;23.298;2022-09-09T18:58:06;92710.25;;;19.64;100.00
18137;BME280;9194;42.632;23.298;2022-09-09T19:03:08;92716.31;;;19.64;100.00
18137;BME280;9194;42.632;23.298;2022-09-09T19:08:09;92693.38;;;19.60;100.00
18137;BME280;9194;42.632;23.298;2022-09-09T19:13:10;92694.47;;;19.54;100.00
18137;BME280;9194;42.632;23.298;2022-09-09T19:18:12;92679.19;;;19.46;100.00
18137;BME280;9194;42.632;23.298;2022-09-09T19:23:13;92678.97;;;19.37;100.00
18137;BME280;9194;42.632;23.298;2022-09-09T19:28:17;92674.97;;;19.40;100.00
18137;BME280;9194;42.632;23.298;2022-09-09T19:33:21;92667.31;;;19.43;100.00
18137;BME280;9194;42.632;23.298;2022-09-09T19:38:22;92671.53;;;19.44;100.00
18137;BME280;9194;42.632;23.298;2022-09-09T19:43:23;92666.00;;;19.46;100.00
18137;BME280;9194;42.632;23.298;2022-09-09T19:48:25;92662.28;;;19.47;100.00
18137;BME280;9194;42.632;23.298;2022-09-09T19:53:35;92660.72;;;19.46;100.00
18137;BME280;9194;42.632;23.298;2022-09-09T19:58:39;92638.53;;;19.42;100.00
18137;BME280;9194;42.632;23.298;2022-09-09T20:03:42;92636.16;;;19.40;100.00
18137;BME280;9194;42.632;23.298;2022-09-09T20:08:46;92624.31;;;19.38;100.00
18137;BME280;9194;42.632;23.298;2022-09-09T20:13:48;92633.81;;;19.39;100.00
18137;BME280;9194;42.632;23.298;2022-09-09T20:18:54;92621.69;;;19.38;100.00
18137;BME280;9194;42.632;23.298;2022-09-09T20:23:58;92623.28;;;19.34;100.00
18137;BME280;9194;42.632;23.298;2022-09-09T20:29:02;92622.25;;;19.29;100.00
18137;BME280;9194;42.632;23.298;2022-09-09T20:34:07;92624.44;;;19.17;100.00
18137;BME280;9194;42.632;23.298;2022-09-09T20:44:18;92637.78;;;18.92;100.00
18137;BME280;9194;42.632;23.298;2022-09-09T20:49:21;92638.88;;;18.86;100.00
18137;BME280;9194;42.632;23.298;2022-09-09T20:54:26;92638.34;;;18.84;100.00
18137;BME280;9194;42.632;23.298;2022-09-09T20:59:29;92638.63;;;18.77;100.00
18137;BME280;9194;42.632;23.298;2022-09-09T21:04:34;92643.91;;;18.77;100.00
18137;BME280;9194;42.632;23.298;2022-09-09T21:09:38;92643.38;;;18.70;100.00
18137;BME280;9194;42.632;23.298;2022-09-09T21:14:42;92635.25;;;18.67;100.00
18137;BME280;9194;42.632;23.298;2022-09-09T21:19:44;92641.31;;;18.62;100.00
18137;BME280;9194;42.632;23.298;2022-09-09T21:24:45;92646.59;;;18.62;100.00
18137;BME280;9194;42.632;23.298;2022-09-09T21:29:46;92644.25;;;18.56;100.00
18137;BME280;9194;42.632;23.298;2022-09-09T21:34:49;92638.44;;;18.43;100.00
18137;BME280;9194;42.632;23.298;2022-09-09T21:39:51;92634.25;;;18.32;100.00
18137;BME280;9194;42.632;23.298;2022-09-09T21:44:52;92640.88;;;18.20;100.00
18137;BME280;9194;42.632;23.298;2022-09-09T21:49:55;92641.41;;;18.12;100.00
18137;BME280;9194;42.632;23.298;2022-09-09T21:54:56;92647.47;;;18.07;100.00
18137;BME280;9194;42.632;23.298;2022-09-09T21:59:58;92651.44;;;18.04;100.00
18137;BME280;9194;42.632;23.298;2022-09-09T22:04:59;92644.31;;;18.00;100.00
18137;BME280;9194;42.632;23.298;2022-09-09T22:10:00;92643.28;;;18.01;100.00
18137;BME280;9194;42.632;23.298;2022-09-09T22:15:02;92628.50;;;18.00;100.00
18137;BME280;9194;42.632;23.298;2022-09-09T22:20:04;92626.44;;;17.92;100.00
18137;BME280;9194;42.632;23.298;2022-09-09T22:25:06;92618.53;;;17.87;100.00
18137;BME280;9194;42.632;23.298;2022-09-09T22:30:08;92624.84;;;17.91;100.00
18137;BME280;9194;42.632;23.298;2022-09-09T22:35:10;92622.75;;;17.88;100.00
18137;BME280;9194;42.632;23.298;2022-09-09T22:40:13;92621.69;;;17.84;100.00
18137;BME280;9194;42.632;23.298;2022-09-09T22:45:14;92624.31;;;17.89;100.00
18137;BME280;9194;42.632;23.298;2022-09-09T22:50:16;92618.78;;;18.00;100.00
18137;BME280;9194;42.632;23.298;2022-09-09T22:55:18;92620.88;;;18.14;100.00
18137;BME280;9194;42.632;23.298;2022-09-09T23:00:20;92604.22;;;18.23;100.00
18137;BME280;9194;42.632;23.298;2022-09-09T23:05:21;92604.25;;;18.28;100.00
18137;BME280;9194;42.632;23.298;2022-09-09T23:10:25;92613.72;;;18.34;100.00
18137;BME280;9194;42.632;23.298;2022-09-09T23:15:28;92623.19;;;18.30;100.00
18137;BME280;9194;42.632;23.298;2022-09-09T23:20:33;92607.09;;;18.37;100.00
18137;BME280;9194;42.632;23.298;2022-09-09T23:25:34;92598.94;;;18.38;100.00
18137;BME280;9194;42.632;23.298;2022-09-09T23:30:40;92597.59;;;18.41;100.00
18137;BME280;9194;42.632;23.298;2022-09-09T23:35:42;92589.97;;;18.39;100.00
18137;BME280;9194;42.632;23.298;2022-09-09T23:40:44;92582.56;;;18.41;100.00
18137;BME280;9194;42.632;23.298;2022-09-09T23:45:47;92579.94;;;18.41;100.00
18137;BME280;9194;42.632;23.298;2022-09-09T23:50:50;92576.50;;;18.41;100.00
18137;BME280;9194;42.632;23.298;2022-09-09T23:55:51;92575.22;;;18.38;100.00
